航空気象通報

ウインドサーファーのための航空気象通報による風予報です。

4/30-5/1の航空気象通報(国内、海外)

2012年04月30日 23時21分29秒 | TAF

羽田空港
TAF RJTT 300837Z 3009/0112 08008KT 9999 FEW020 BKN040
     BECMG 3018/3021 05008KT
     BECMG 0100/0103 10010KT  
日本時間30日18-19時:080度から8ノットの風
19-21時:風が変化
21時-1日09時:050度から8ノットの風
09-12時:風が変化
12-21時:100度から10ノットの風

静岡空港
TAF RJNS 300841Z 3009/0112 08010KT 8000 FEW010 BKN020
     TEMPO 3009/3015 4000 -SHRA BR FEW002 BKN007
日本時間30日18時-1日21時:080度から10ノットの風

但し、30日18-24時の間:ときどき

福岡空港
TAF RJFF 300844Z 3009/0112 12008KT 9999 FEW030
     BECMG 0103/0106 03005KT
     BECMG 0109/0112 12006KT
日本時間30日18時-1日12時:120度から8ノットの風
12-15時:風が変化
15-21時:120度から6ノットの風

那覇空港
TAF ROAH 300838Z 3009/0112 23009KT 9999 FEW010 SCT025
日本時間30日18時-1日21時:230度から9ノットの風

マウイのカフルイ空港
PHOG 301125Z 3012/0112 06012KT P6SM FEW030 BKN070
     FM301900 07019G30KT P6SM FEW035 SCT070
     FM010300 07014G22KT P6SM FEW030 SCT070
     FM010800 06012KT P6SM FEW030 SCT070
ハワイ時間30日02-09時:060度から12ノットの風

09-17時:070度から19ノット、突風30ノット
17-22時:070度から14ノット、突風22ノット
22時-1日02時:060度から12ノットの風

サイパン空港
PGSN 301121Z 3012/0112 06009KT P6SM VCSH FEW020 BKN100
マリアナ時間30日22時-1日22時:060度から9ノットの風

コメント

4/29-4/30の航空気象通報(国内、海外)

2012年04月30日 00時09分03秒 | TAF

羽田空港
TAF RJTT 290838Z 2909/3012 19010KT 9999 FEW030
     BECMG 2916/2918 01003KT
     TEMPO 2917/2924 4000 BR FEW005 BKN008
     BECMG 3000/3003 12006KT
     TEMPO 3006/3009 TS FEW015 BKN025 FEW025CB    
日本時間29日18時-30日01時:190度から10ノットの風
01-03時:風が変化
03-09時:010度から3ノットの風
09-12時:風が変化
12-21時:120度から6ノットの風

但し、30日02-09時の間:ときどき
但し、30日15-18時の間:ときどき

静岡空港
TAF RJNS 290843Z 2909/3012 26005KT 8000 FEW020
     TEMPO 2913/2921 4000 BR
     BECMG 2921/2924 07006KT
     TEMPO 3009/3012 4000 -SHRA BR
日本時間29日18時-30日06時:260度から5ノットの風
06-09時:風が変化
09-21時:070度から6ノットの風

但し、30日18-21時の間:ときどき

福岡空港
TAF RJFF 290843Z 2909/3012 32006KT 9999 FEW030
     BECMG 2910/2912 14005KT
     TEMPO 2918/2924 4000 SHRA BR
日本時間29日18-19時:320度から6ノットの風
19-21時:風が変化
21時-30日21時:140度から5ノットの風

但し、30日03-09時の間:ときどき

那覇空港
TAF AMD ROAH 291336Z 2913/3012 18013KT 9999 FEW010 BKN020
     TEMPO 2916/2917 3000 +SHRA FEW010 BKN020 FEW025CB
     TEMPO 2918/2921 2000 TSRA FEW010 BKN020 FEW025CB
     TEMPO 2921/2924 3000 +SHRA FEW010 BKN020 FEW025CB
日本時間29日18時-30日21時:180度から13ノットの風

但し、30日01-02時の間:ときどき
但し、30日03-06時の間:ときどき
但し、30日06-09時の間:ときどき

マウイのカフルイ空港
PHOG 291122Z 2912/3012 07011G16KT P6SM FEW035 SCT050
     FM292000 07018G28KT P6SM FEW040 SCT050
     FM300500 07011G15KT P6SM FEW035 SCT050
ハワイ時間29日02-10時:070度から11ノット、突風16ノット
10-19時:070度から18ノット、突風28ノット
19時-30日02時:070度から11ノット、突風15ノット

サイパン空港
PGSN 291120Z 2912/3012 06009KT P6SM FEW025 SCT070
マリアナ時間29日22時-30日22時:060度から9ノットの風

コメント

4/28-4/29の航空気象通報(国内、海外)

2012年04月28日 21時42分16秒 | TAF

羽田空港
TAF RJTT 280837Z 2809/2912 10010KT 9999 FEW030
     BECMG 2814/2816 03004KT
     TEMPO 2818/2824 4000 BR FEW006 BKN009
     BECMG 2900/2903 13010KT    
日本時間28日18-23時:100度から10ノットの風
23時-29日01時:風が変化
01-09時:030度から4ノットの風
09-12時:風が変化
12-21時:130度から10ノットの風

但し、29日03時-09時の間:ときどき

静岡空港
TAF RJNS 280838Z 2809/2912 18008KT 9999 FEW020 SCT030
     BECMG 2810/2812 30005KT
     TEMPO 2812/2816 3000 BR
     BECMG 2900/2903 18006KT
     BECMG 2906/2909 24006KT
日本時間28日18-19時:180度から8ノットの風
19-21時:風が変化
21時-29日09時:300度から5ノットの風
09-12時:風が変化
12-18時:180度から6ノットの風
18-21時:風が変化
21時:240度から6ノットの風

福岡空港
TAF RJFF 280840Z 2809/2912 33006KT CAVOK
     BECMG 2812/2814 14005KT
     BECMG 2900/2903 32007KT
     BECMG 2909/2912 14003KT
日本時間28日18-21時:330度から6ノットの風
21-23時:風が変化
23時-29日09時:140度から5ノットの風
09-12時:風が変化
12-18時:320度から7ノットの風
18-21時:風が変化
21時:140度から3ノットの風

那覇空港
TAF ROAH 280839Z 2809/2912 13009KT 9999 FEW020 SCT040
日本時間28日18時-29日21時:130度から9ノットの風

マウイのカフルイ空港
PHOG 281138Z 2812/2912 07008KT P6SM FEW050
     FM281900 07011G18KT P6SM FEW030 SCT050
     FM282300 07017G25KT P6SM FEW030 SCT050
     FM290800 07009G17KT P6SM FEW050 AMD LTD TO WX VIS AND WIND TIL 281600
ハワイ時間28日02-09時:070度から8ノットの風
09-13時:070度から11ノット、突風18ノット
13-22時:070度から17ノット、突風25ノット
22時-29日02時:070度から9ノット、突風17ノット

サイパン空港
PGSN 281120Z 2812/2912 04011KT P6SM VCSH SCT022 SCT100
マリアナ時間28日22時-29日22時:040度から11ノットの風

コメント

4/27-4/28の航空気象通報(国内、海外)

2012年04月28日 01時16分32秒 | TAF

羽田空港
TAF RJTT 271442Z 2715/2818 01010KT 4000 BR FEW003 BKN006
     TEMPO 2715/2718 3000 -RA BR FEW002 BKN003
     TEMPO 2718/2721 1500 BR BCFG FEW002 BKN003
     BECMG 2721/2723 8000 NSW FEW008 BKN015
     BECMG 2800/2803 08008KT
     BECMG 2803/2806 14010KT
日本時間28日00-09時:010度から10ノットの風
09-12時:風が変化
12時:080度から8ノットの風
12-15時:風が変化
15時-29日03時:140度から10ノットの風

静岡空港
TAF RJNS 271443Z 2715/2818 04004KT 9999 FEW030
     BECMG 2803/2806 18010KT
     BECMG 2809/2812 22006KT
     TEMPO 2812/2818 3000 BR FEW003 BKN006
日本時間28日00-12時:040度から4ノットの風
12-15時:風が変化
15-18時:180度から10ノットの風
18-21時:風が変化
21時-29日03時:220度から6ノットの風

但し、28日21時-29日03時の間:ときどき

福岡空港
TAF RJFF 271445Z 2715/2818 14003KT CAVOK
     BECMG 2800/2803 31008KT
     BECMG 2812/2815 14004KT
日本時間28日00-09時:140度から3ノットの風
09-12時:風が変化
12-21時:310度から8ノットの風
21-24時:風が変化
29日00-03時:140度から4ノットの風

那覇空港
TAF ROAH 271440Z 2715/2818 13004KT 9999 FEW020 SCT035
日本時間28日18時-29日03時:130度から4ノットの風

マウイのカフルイ空港
PHOG 271134Z 2712/2812 VRB06KT P6SM FEW030 BKN050
     FM272000 06012G22KT P6SM FEW035 SCT050
     FM280400 07010KT P6SM FEW030 SCT050 AMD LTD TO WX VIS AND WIND TIL 271600
ハワイ時間28日02-10時:風向不定6ノットの風

10-18時:060度から12ノット、突風22ノット
18時-25日02時:070度から10ノットの風

サイパン空港
PGSN 271120Z 2712/2812 06009KT P6SM VCSH SCT025 SCT100
マリアナ時間28日22時-29日22時:060度から9ノットの風

コメント

4/23-4/24の航空気象通報(国内、海外)

2012年04月23日 23時56分46秒 | TAF

羽田空港
TAF RJTT 230839Z 2309/2412 05008KT 6000 -SHRA FEW008 BKN015
     TEMPO 2309/2312 1500 TSRA BR FEW004 BKN006 FEW020CB
     TEMPO 2312/2315 2000 SHRA BR FEW004 BKN006
     TEMPO 2315/2324 3000 BR FEW004 BKN008
     BECMG 2403/2406 16010KT
日本時間23日18時-24日12時:050度から8ノットの風
12-15時:風が変化
15-21時:160度から10ノットの風

但し、23日18-21時の間:ときどき

静岡空港
TAF RJNS 230841Z 2309/2412 03008KT 9999 FEW010 SCT030
     BECMG 2310/2312 27008KT
     BECMG 2400/2403 18008KT
     BECMG 2406/2409 27010KT
日本時間23日18-19時:030度から8ノットの風
19-21時:風が変化
21時-24日09時:270度から8ノットの風
09-12時:風が変化
12-15時:180度から8ノットの風
15-18時:風が変化
18-21時:270度から10ノットの風

福岡空港
TAF RJFF 230844Z 2309/2412 32008KT 7000 FEW030
     BECMG 2310/2312 14005KT
     TEMPO 2318/2324 4000 BR
     BECMG 2400/2403 33008KT
     BECMG 2409/2412 12005KT
日本時間23日18-19時:320度から8ノットの風
19-21時:風が変化
21時-24日09時:140度から5ノットの風
09-12時:風が変化
12-18時:330度から8ノットの風
18-21時:風が変化
21時:120度から5ノットの風

那覇空港
TAF ROAH 230837Z 2309/2412 11007KT 9999 FEW015 SCT045
日本時間23日18時-24日21時:110度から7ノットの風

マウイのカフルイ空港
PHOG 231133Z 2312/2412 05010G15KT P6SM VCSH FEW035 BKN060
     FM231900 05018G28KT P6SM FEW035 BKN060
     FM240400 05012G20KT P6SM FEW035 SCT050
     FM240800 06012KT P6SM FEW035 SCT050 AMD LTD TO WX VIS AND WIND TIL 231600
ハワイ時間23日02-09時:050度から10ノット、突風15ノット
09-18時:050度から18ノット、突風28ノット
18-22時:050度から12ノット、突風20ノット
22時-24日02時:060度から12ノットの風

サイパン空港
PGSN 231128Z 2312/2412 08011KT P6SM VCSH SCT020 SCT050
マリアナ時間23日22時-24日22時:080度から11ノットの風

コメント